sensor_id;sensor_type;location;lat;lon;timestamp;P1;durP1;ratioP1;P2;durP2;ratioP2
26040;SDS011;13816;53.628;9.950;2023-03-01T00:01:03;12.07;;;7.90;;
26040;SDS011;13816;53.628;9.950;2023-03-01T00:03:30;11.70;;;8.23;;
26040;SDS011;13816;53.628;9.950;2023-03-01T00:05:57;13.13;;;8.60;;
26040;SDS011;13816;53.628;9.950;2023-03-01T00:08:23;14.13;;;8.87;;
26040;SDS011;13816;53.628;9.950;2023-03-01T00:10:49;13.33;;;8.83;;
26040;SDS011;13816;53.628;9.950;2023-03-01T00:13:15;12.70;;;8.30;;
26040;SDS011;13816;53.628;9.950;2023-03-01T00:15:41;14.40;;;8.70;;
26040;SDS011;13816;53.628;9.950;2023-03-01T00:18:08;11.47;;;7.70;;
26040;SDS011;13816;53.628;9.950;2023-03-01T00:20:34;13.63;;;7.17;;
26040;SDS011;13816;53.628;9.950;2023-03-01T00:23:01;13.73;;;7.63;;
26040;SDS011;13816;53.628;9.950;2023-03-01T00:25:27;11.50;;;8.27;;
26040;SDS011;13816;53.628;9.950;2023-03-01T00:27:53;12.27;;;7.50;;
26040;SDS011;13816;53.628;9.950;2023-03-01T00:30:19;12.00;;;6.70;;
26040;SDS011;13816;53.628;9.950;2023-03-01T00:32:45;15.20;;;8.47;;
26040;SDS011;13816;53.628;9.950;2023-03-01T00:35:11;11.40;;;7.53;;
26040;SDS011;13816;53.628;9.950;2023-03-01T00:37:37;11.20;;;7.67;;
26040;SDS011;13816;53.628;9.950;2023-03-01T00:40:05;11.20;;;6.60;;
26040;SDS011;13816;53.628;9.950;2023-03-01T00:42:32;13.40;;;7.77;;
26040;SDS011;13816;53.628;9.950;2023-03-01T00:44:58;11.47;;;7.40;;
26040;SDS011;13816;53.628;9.950;2023-03-01T00:47:24;12.40;;;7.53;;
26040;SDS011;13816;53.628;9.950;2023-03-01T00:49:51;12.10;;;7.87;;
26040;SDS011;13816;53.628;9.950;2023-03-01T00:52:17;12.40;;;8.10;;
26040;SDS011;13816;53.628;9.950;2023-03-01T00:54:43;15.50;;;8.50;;
26040;SDS011;13816;53.628;9.950;2023-03-01T00:57:09;11.90;;;8.43;;
26040;SDS011;13816;53.628;9.950;2023-03-01T00:59:35;16.27;;;8.73;;
26040;SDS011;13816;53.628;9.950;2023-03-01T01:02:01;15.43;;;9.07;;
26040;SDS011;13816;53.628;9.950;2023-03-01T01:04:27;11.23;;;7.67;;
26040;SDS011;13816;53.628;9.950;2023-03-01T01:06:53;11.03;;;7.20;;
26040;SDS011;13816;53.628;9.950;2023-03-01T01:09:20;10.70;;;7.47;;
26040;SDS011;13816;53.628;9.950;2023-03-01T01:11:46;14.50;;;8.13;;
26040;SDS011;13816;53.628;9.950;2023-03-01T01:14:13;12.17;;;7.93;;
26040;SDS011;13816;53.628;9.950;2023-03-01T01:16:39;11.00;;;7.23;;
26040;SDS011;13816;53.628;9.950;2023-03-01T01:19:05;8.60;;;6.80;;
26040;SDS011;13816;53.628;9.950;2023-03-01T01:21:32;15.60;;;7.97;;
26040;SDS011;13816;53.628;9.950;2023-03-01T01:23:58;12.10;;;6.40;;
26040;SDS011;13816;53.628;9.950;2023-03-01T01:26:25;16.30;;;7.80;;
26040;SDS011;13816;53.628;9.950;2023-03-01T01:28:51;10.97;;;7.50;;
26040;SDS011;13816;53.628;9.950;2023-03-01T01:31:18;11.70;;;7.60;;
26040;SDS011;13816;53.628;9.950;2023-03-01T01:33:45;9.63;;;7.20;;
26040;SDS011;13816;53.628;9.950;2023-03-01T01:36:12;11.93;;;7.60;;
26040;SDS011;13816;53.628;9.950;2023-03-01T01:38:38;11.07;;;7.73;;
26040;SDS011;13816;53.628;9.950;2023-03-01T01:41:04;11.53;;;7.77;;
26040;SDS011;13816;53.628;9.950;2023-03-01T01:43:35;12.53;;;8.30;;
26040;SDS011;13816;53.628;9.950;2023-03-01T01:46:03;13.30;;;7.30;;
26040;SDS011;13816;53.628;9.950;2023-03-01T01:48:50;11.60;;;7.40;;
26040;SDS011;13816;53.628;9.950;2023-03-01T01:51:18;11.00;;;7.87;;
26040;SDS011;13816;53.628;9.950;2023-03-01T01:53:46;12.80;;;7.43;;
26040;SDS011;13816;53.628;9.950;2023-03-01T01:56:14;12.13;;;8.10;;
26040;SDS011;13816;53.628;9.950;2023-03-01T01:58:41;12.47;;;7.80;;
26040;SDS011;13816;53.628;9.950;2023-03-01T02:01:13;10.50;;;6.73;;
26040;SDS011;13816;53.628;9.950;2023-03-01T02:03:39;12.10;;;7.10;;
26040;SDS011;13816;53.628;9.950;2023-03-01T02:06:12;14.20;;;7.60;;
26040;SDS011;13816;53.628;9.950;2023-03-01T02:08:40;14.30;;;7.67;;
26040;SDS011;13816;53.628;9.950;2023-03-01T02:11:06;10.93;;;7.30;;
26040;SDS011;13816;53.628;9.950;2023-03-01T02:13:33;11.97;;;7.97;;
26040;SDS011;13816;53.628;9.950;2023-03-01T02:16:18;10.83;;;7.70;;
26040;SDS011;13816;53.628;9.950;2023-03-01T02:18:44;14.33;;;8.07;;
26040;SDS011;13816;53.628;9.950;2023-03-01T02:21:28;13.50;;;7.67;;
26040;SDS011;13816;53.628;9.950;2023-03-01T02:23:55;13.40;;;7.90;;
26040;SDS011;13816;53.628;9.950;2023-03-01T02:26:36;12.47;;;8.50;;
26040;SDS011;13816;53.628;9.950;2023-03-01T02:29:06;11.00;;;7.40;;
26040;SDS011;13816;53.628;9.950;2023-03-01T02:31:32;11.90;;;8.37;;
26040;SDS011;13816;53.628;9.950;2023-03-01T02:34:15;10.40;;;6.90;;
26040;SDS011;13816;53.628;9.950;2023-03-01T02:36:46;16.70;;;9.40;;
26040;SDS011;13816;53.628;9.950;2023-03-01T02:39:32;11.90;;;7.97;;
26040;SDS011;13816;53.628;9.950;2023-03-01T02:42:00;9.87;;;7.57;;
26040;SDS011;13816;53.628;9.950;2023-03-01T02:44:28;12.97;;;8.50;;
26040;SDS011;13816;53.628;9.950;2023-03-01T02:46:55;12.63;;;7.97;;
26040;SDS011;13816;53.628;9.950;2023-03-01T02:56:59;10.50;;;6.93;;
26040;SDS011;13816;53.628;9.950;2023-03-01T02:59:31;13.20;;;7.87;;
26040;SDS011;13816;53.628;9.950;2023-03-01T03:02:06;9.73;;;6.73;;
26040;SDS011;13816;53.628;9.950;2023-03-01T03:04:32;13.63;;;8.00;;
26040;SDS011;13816;53.628;9.950;2023-03-01T03:06:58;12.93;;;7.80;;
26040;SDS011;13816;53.628;9.950;2023-03-01T03:09:25;10.17;;;7.97;;
26040;SDS011;13816;53.628;9.950;2023-03-01T03:11:51;11.43;;;8.03;;
26040;SDS011;13816;53.628;9.950;2023-03-01T03:14:17;9.70;;;6.53;;
26040;SDS011;13816;53.628;9.950;2023-03-01T03:16:47;7.63;;;6.63;;
26040;SDS011;13816;53.628;9.950;2023-03-01T03:19:16;11.83;;;8.10;;
26040;SDS011;13816;53.628;9.950;2023-03-01T03:21:43;9.70;;;6.77;;
26040;SDS011;13816;53.628;9.950;2023-03-01T03:24:09;14.10;;;8.07;;
26040;SDS011;13816;53.628;9.950;2023-03-01T03:26:35;9.03;;;7.37;;
26040;SDS011;13816;53.628;9.950;2023-03-01T03:29:01;10.97;;;8.10;;
26040;SDS011;13816;53.628;9.950;2023-03-01T03:31:27;10.43;;;8.00;;
26040;SDS011;13816;53.628;9.950;2023-03-01T03:33:56;15.33;;;7.70;;
26040;SDS011;13816;53.628;9.950;2023-03-01T03:36:24;11.00;;;7.20;;
26040;SDS011;13816;53.628;9.950;2023-03-01T03:38:50;9.63;;;7.13;;
26040;SDS011;13816;53.628;9.950;2023-03-01T03:41:16;10.23;;;6.80;;
26040;SDS011;13816;53.628;9.950;2023-03-01T03:43:43;12.77;;;7.80;;
26040;SDS011;13816;53.628;9.950;2023-03-01T03:46:10;9.83;;;7.03;;
26040;SDS011;13816;53.628;9.950;2023-03-01T03:48:37;10.47;;;7.17;;
26040;SDS011;13816;53.628;9.950;2023-03-01T03:51:04;9.80;;;6.80;;
26040;SDS011;13816;53.628;9.950;2023-03-01T03:53:31;11.00;;;6.83;;
26040;SDS011;13816;53.628;9.950;2023-03-01T03:55:57;11.27;;;7.70;;
26040;SDS011;13816;53.628;9.950;2023-03-01T03:58:24;12.63;;;7.80;;
26040;SDS011;13816;53.628;9.950;2023-03-01T04:00:52;11.00;;;7.60;;
26040;SDS011;13816;53.628;9.950;2023-03-01T04:03:18;8.47;;;6.80;;
26040;SDS011;13816;53.628;9.950;2023-03-01T04:05:45;9.17;;;7.20;;
26040;SDS011;13816;53.628;9.950;2023-03-01T04:08:12;12.50;;;7.63;;
26040;SDS011;13816;53.628;9.950;2023-03-01T04:10:43;10.97;;;7.10;;
26040;SDS011;13816;53.628;9.950;2023-03-01T04:13:11;9.37;;;7.20;;
26040;SDS011;13816;53.628;9.950;2023-03-01T04:15:37;12.03;;;7.23;;
26040;SDS011;13816;53.628;9.950;2023-03-01T04:18:04;11.80;;;7.23;;
26040;SDS011;13816;53.628;9.950;2023-03-01T04:20:31;11.00;;;8.10;;
26040;SDS011;13816;53.628;9.950;2023-03-01T04:22:59;11.10;;;7.80;;
26040;SDS011;13816;53.628;9.950;2023-03-01T04:25:52;12.07;;;6.90;;
26040;SDS011;13816;53.628;9.950;2023-03-01T04:28:38;12.73;;;7.93;;
26040;SDS011;13816;53.628;9.950;2023-03-01T04:31:13;12.53;;;7.30;;
26040;SDS011;13816;53.628;9.950;2023-03-01T04:33:59;14.77;;;8.20;;
26040;SDS011;13816;53.628;9.950;2023-03-01T04:36:26;11.73;;;7.50;;
26040;SDS011;13816;53.628;9.950;2023-03-01T04:38:52;9.70;;;6.77;;
26040;SDS011;13816;53.628;9.950;2023-03-01T04:41:19;10.37;;;7.20;;
26040;SDS011;13816;53.628;9.950;2023-03-01T04:43:46;14.90;;;7.37;;
26040;SDS011;13816;53.628;9.950;2023-03-01T04:46:13;11.73;;;7.60;;
26040;SDS011;13816;53.628;9.950;2023-03-01T04:48:40;11.43;;;6.33;;
26040;SDS011;13816;53.628;9.950;2023-03-01T04:51:07;9.87;;;7.40;;
26040;SDS011;13816;53.628;9.950;2023-03-01T04:53:34;11.60;;;8.00;;
26040;SDS011;13816;53.628;9.950;2023-03-01T04:56:01;13.60;;;7.10;;
26040;SDS011;13816;53.628;9.950;2023-03-01T04:58:28;19.97;;;8.20;;
26040;SDS011;13816;53.628;9.950;2023-03-01T05:00:54;11.90;;;7.73;;
26040;SDS011;13816;53.628;9.950;2023-03-01T05:03:21;10.17;;;7.20;;
26040;SDS011;13816;53.628;9.950;2023-03-01T05:05:48;18.30;;;7.90;;
26040;SDS011;13816;53.628;9.950;2023-03-01T05:08:14;9.60;;;7.00;;
26040;SDS011;13816;53.628;9.950;2023-03-01T05:10:50;8.17;;;7.27;;
26040;SDS011;13816;53.628;9.950;2023-03-01T05:13:17;9.37;;;7.47;;
26040;SDS011;13816;53.628;9.950;2023-03-01T05:15:53;10.20;;;7.33;;
26040;SDS011;13816;53.628;9.950;2023-03-01T05:18:21;12.70;;;7.70;;
26040;SDS011;13816;53.628;9.950;2023-03-01T05:20:54;10.73;;;6.97;;
26040;SDS011;13816;53.628;9.950;2023-03-01T05:23:23;10.17;;;7.57;;
26040;SDS011;13816;53.628;9.950;2023-03-01T05:25:50;11.33;;;7.00;;
26040;SDS011;13816;53.628;9.950;2023-03-01T05:28:17;11.27;;;7.10;;
26040;SDS011;13816;53.628;9.950;2023-03-01T05:30:44;16.20;;;8.43;;
26040;SDS011;13816;53.628;9.950;2023-03-01T05:33:10;12.90;;;8.30;;
26040;SDS011;13816;53.628;9.950;2023-03-01T05:35:40;13.97;;;7.33;;
26040;SDS011;13816;53.628;9.950;2023-03-01T05:38:07;20.73;;;7.60;;
26040;SDS011;13816;53.628;9.950;2023-03-01T05:40:34;8.83;;;6.80;;
26040;SDS011;13816;53.628;9.950;2023-03-01T05:43:00;11.70;;;7.27;;
26040;SDS011;13816;53.628;9.950;2023-03-01T05:45:27;17.00;;;7.33;;
26040;SDS011;13816;53.628;9.950;2023-03-01T05:47:53;10.60;;;7.00;;
26040;SDS011;13816;53.628;9.950;2023-03-01T05:50:26;10.93;;;7.20;;
26040;SDS011;13816;53.628;9.950;2023-03-01T05:55:38;11.83;;;6.40;;
26040;SDS011;13816;53.628;9.950;2023-03-01T05:58:06;13.27;;;7.77;;
26040;SDS011;13816;53.628;9.950;2023-03-01T06:00:32;11.50;;;7.43;;
26040;SDS011;13816;53.628;9.950;2023-03-01T06:02:59;11.47;;;7.40;;
26040;SDS011;13816;53.628;9.950;2023-03-01T06:05:25;10.23;;;7.20;;
26040;SDS011;13816;53.628;9.950;2023-03-01T06:07:52;7.03;;;6.33;;
26040;SDS011;13816;53.628;9.950;2023-03-01T06:10:18;19.50;;;7.90;;
26040;SDS011;13816;53.628;9.950;2023-03-01T06:12:44;12.93;;;6.53;;
26040;SDS011;13816;53.628;9.950;2023-03-01T06:15:12;8.57;;;6.70;;
26040;SDS011;13816;53.628;9.950;2023-03-01T06:17:40;12.03;;;6.40;;
26040;SDS011;13816;53.628;9.950;2023-03-01T06:20:10;9.20;;;6.00;;
26040;SDS011;13816;53.628;9.950;2023-03-01T06:22:37;11.60;;;6.90;;
26040;SDS011;13816;53.628;9.950;2023-03-01T06:25:03;10.43;;;6.50;;
26040;SDS011;13816;53.628;9.950;2023-03-01T06:27:30;10.17;;;7.00;;
26040;SDS011;13816;53.628;9.950;2023-03-01T06:29:56;10.43;;;6.80;;
26040;SDS011;13816;53.628;9.950;2023-03-01T06:32:22;8.90;;;6.17;;
26040;SDS011;13816;53.628;9.950;2023-03-01T06:34:49;9.00;;;7.17;;
26040;SDS011;13816;53.628;9.950;2023-03-01T06:37:15;11.60;;;7.00;;
26040;SDS011;13816;53.628;9.950;2023-03-01T06:39:41;14.07;;;7.00;;
26040;SDS011;13816;53.628;9.950;2023-03-01T06:42:07;8.40;;;7.13;;
26040;SDS011;13816;53.628;9.950;2023-03-01T06:44:35;12.30;;;7.83;;
26040;SDS011;13816;53.628;9.950;2023-03-01T06:47:01;16.03;;;7.10;;
26040;SDS011;13816;53.628;9.950;2023-03-01T06:49:28;12.73;;;7.83;;
26040;SDS011;13816;53.628;9.950;2023-03-01T06:51:55;10.90;;;7.13;;
26040;SDS011;13816;53.628;9.950;2023-03-01T06:54:21;13.00;;;7.57;;
26040;SDS011;13816;53.628;9.950;2023-03-01T06:56:47;12.77;;;6.60;;
26040;SDS011;13816;53.628;9.950;2023-03-01T06:59:14;12.67;;;7.80;;
26040;SDS011;13816;53.628;9.950;2023-03-01T07:01:40;18.67;;;8.13;;
26040;SDS011;13816;53.628;9.950;2023-03-01T07:04:06;9.17;;;7.10;;
26040;SDS011;13816;53.628;9.950;2023-03-01T07:06:39;12.00;;;7.37;;
26040;SDS011;13816;53.628;9.950;2023-03-01T07:09:48;12.73;;;7.53;;
26040;SDS011;13816;53.628;9.950;2023-03-01T07:12:14;15.30;;;6.90;;
26040;SDS011;13816;53.628;9.950;2023-03-01T07:14:40;13.23;;;6.17;;
26040;SDS011;13816;53.628;9.950;2023-03-01T07:17:06;8.47;;;5.40;;
26040;SDS011;13816;53.628;9.950;2023-03-01T07:19:32;12.67;;;6.30;;
26040;SDS011;13816;53.628;9.950;2023-03-01T07:21:59;11.03;;;6.73;;
26040;SDS011;13816;53.628;9.950;2023-03-01T07:24:25;11.93;;;7.43;;
26040;SDS011;13816;53.628;9.950;2023-03-01T07:26:51;9.43;;;6.50;;
26040;SDS011;13816;53.628;9.950;2023-03-01T07:29:18;9.90;;;6.60;;
26040;SDS011;13816;53.628;9.950;2023-03-01T07:31:45;8.50;;;6.83;;
26040;SDS011;13816;53.628;9.950;2023-03-01T07:34:14;13.17;;;7.37;;
26040;SDS011;13816;53.628;9.950;2023-03-01T07:36:41;11.50;;;7.70;;
26040;SDS011;13816;53.628;9.950;2023-03-01T07:39:09;11.17;;;7.77;;
26040;SDS011;13816;53.628;9.950;2023-03-01T07:41:35;11.43;;;8.43;;
26040;SDS011;13816;53.628;9.950;2023-03-01T07:44:01;11.33;;;8.83;;
26040;SDS011;13816;53.628;9.950;2023-03-01T07:46:27;13.10;;;9.57;;
26040;SDS011;13816;53.628;9.950;2023-03-01T07:48:53;23.50;;;12.07;;
26040;SDS011;13816;53.628;9.950;2023-03-01T07:51:20;13.90;;;10.07;;
26040;SDS011;13816;53.628;9.950;2023-03-01T07:53:46;16.93;;;11.40;;
26040;SDS011;13816;53.628;9.950;2023-03-01T07:56:13;16.53;;;11.27;;
26040;SDS011;13816;53.628;9.950;2023-03-01T07:58:42;15.27;;;10.80;;
26040;SDS011;13816;53.628;9.950;2023-03-01T08:01:16;24.27;;;12.70;;
26040;SDS011;13816;53.628;9.950;2023-03-01T08:03:42;15.80;;;11.40;;
26040;SDS011;13816;53.628;9.950;2023-03-01T08:06:09;20.37;;;11.87;;
26040;SDS011;13816;53.628;9.950;2023-03-01T08:08:36;16.30;;;12.07;;
26040;SDS011;13816;53.628;9.950;2023-03-01T08:11:03;17.93;;;13.20;;
26040;SDS011;13816;53.628;9.950;2023-03-01T08:13:29;18.97;;;12.63;;
26040;SDS011;13816;53.628;9.950;2023-03-01T08:16:06;19.30;;;13.60;;
26040;SDS011;13816;53.628;9.950;2023-03-01T08:18:32;19.43;;;13.60;;
26040;SDS011;13816;53.628;9.950;2023-03-01T08:21:02;22.23;;;14.30;;
26040;SDS011;13816;53.628;9.950;2023-03-01T08:23:29;25.93;;;14.53;;
26040;SDS011;13816;53.628;9.950;2023-03-01T08:25:55;20.27;;;15.77;;
26040;SDS011;13816;53.628;9.950;2023-03-01T08:28:28;20.20;;;15.10;;
26040;SDS011;13816;53.628;9.950;2023-03-01T08:30:54;21.03;;;14.43;;
26040;SDS011;13816;53.628;9.950;2023-03-01T08:33:20;21.33;;;15.00;;
26040;SDS011;13816;53.628;9.950;2023-03-01T08:35:46;17.30;;;14.60;;
26040;SDS011;13816;53.628;9.950;2023-03-01T08:38:12;19.80;;;14.00;;
26040;SDS011;13816;53.628;9.950;2023-03-01T08:40:38;22.67;;;14.30;;
26040;SDS011;13816;53.628;9.950;2023-03-01T08:43:04;17.40;;;12.83;;
26040;SDS011;13816;53.628;9.950;2023-03-01T08:45:31;21.23;;;13.53;;
26040;SDS011;13816;53.628;9.950;2023-03-01T08:47:57;20.70;;;13.40;;
26040;SDS011;13816;53.628;9.950;2023-03-01T08:50:23;16.47;;;12.70;;
26040;SDS011;13816;53.628;9.950;2023-03-01T08:52:49;17.33;;;12.20;;
26040;SDS011;13816;53.628;9.950;2023-03-01T08:55:16;16.43;;;12.60;;
26040;SDS011;13816;53.628;9.950;2023-03-01T08:57:42;16.00;;;12.00;;
26040;SDS011;13816;53.628;9.950;2023-03-01T09:00:09;18.50;;;13.07;;
26040;SDS011;13816;53.628;9.950;2023-03-01T09:02:36;18.73;;;12.13;;
26040;SDS011;13816;53.628;9.950;2023-03-01T09:05:03;19.00;;;13.20;;
26040;SDS011;13816;53.628;9.950;2023-03-01T09:07:30;20.60;;;13.33;;
26040;SDS011;13816;53.628;9.950;2023-03-01T09:09:56;20.60;;;12.97;;
26040;SDS011;13816;53.628;9.950;2023-03-01T09:12:22;21.07;;;15.30;;
26040;SDS011;13816;53.628;9.950;2023-03-01T09:14:50;21.40;;;14.73;;
26040;SDS011;13816;53.628;9.950;2023-03-01T09:17:16;20.90;;;13.90;;
26040;SDS011;13816;53.628;9.950;2023-03-01T09:19:42;19.20;;;14.17;;
26040;SDS011;13816;53.628;9.950;2023-03-01T09:22:08;25.23;;;16.70;;
26040;SDS011;13816;53.628;9.950;2023-03-01T09:24:34;25.00;;;15.37;;
26040;SDS011;13816;53.628;9.950;2023-03-01T09:27:00;23.90;;;15.33;;
26040;SDS011;13816;53.628;9.950;2023-03-01T09:29:27;26.50;;;15.00;;
26040;SDS011;13816;53.628;9.950;2023-03-01T09:31:54;23.80;;;14.83;;
26040;SDS011;13816;53.628;9.950;2023-03-01T09:34:21;25.00;;;14.93;;
26040;SDS011;13816;53.628;9.950;2023-03-01T09:36:48;22.77;;;15.03;;
26040;SDS011;13816;53.628;9.950;2023-03-01T09:39:15;29.93;;;16.47;;
26040;SDS011;13816;53.628;9.950;2023-03-01T09:41:50;22.73;;;15.60;;
26040;SDS011;13816;53.628;9.950;2023-03-01T09:44:20;22.30;;;15.23;;
26040;SDS011;13816;53.628;9.950;2023-03-01T09:46:47;24.53;;;16.47;;
26040;SDS011;13816;53.628;9.950;2023-03-01T09:49:15;19.83;;;13.43;;
26040;SDS011;13816;53.628;9.950;2023-03-01T09:51:42;24.40;;;14.80;;
26040;SDS011;13816;53.628;9.950;2023-03-01T09:54:09;23.93;;;14.67;;
26040;SDS011;13816;53.628;9.950;2023-03-01T09:56:46;21.10;;;15.13;;
26040;SDS011;13816;53.628;9.950;2023-03-01T10:02:47;21.90;;;14.37;;
26040;SDS011;13816;53.628;9.950;2023-03-01T10:04:47;19.63;;;13.90;;
26040;SDS011;13816;53.628;9.950;2023-03-01T10:09:43;22.17;;;13.83;;
26040;SDS011;13816;53.628;9.950;2023-03-01T10:12:18;19.73;;;12.73;;
26040;SDS011;13816;53.628;9.950;2023-03-01T10:19:47;15.10;;;11.10;;
26040;SDS011;13816;53.628;9.950;2023-03-01T10:22:13;18.47;;;10.57;;
26040;SDS011;13816;53.628;9.950;2023-03-01T10:24:41;17.20;;;13.07;;
26040;SDS011;13816;53.628;9.950;2023-03-01T10:27:16;16.43;;;12.27;;
26040;SDS011;13816;53.628;9.950;2023-03-01T10:30:05;16.13;;;10.93;;
26040;SDS011;13816;53.628;9.950;2023-03-01T10:32:31;13.50;;;9.77;;
26040;SDS011;13816;53.628;9.950;2023-03-01T10:34:57;17.40;;;9.93;;
26040;SDS011;13816;53.628;9.950;2023-03-01T10:37:23;13.50;;;9.40;;
26040;SDS011;13816;53.628;9.950;2023-03-01T10:42:29;17.83;;;9.60;;
26040;SDS011;13816;53.628;9.950;2023-03-01T10:44:55;16.53;;;10.27;;
26040;SDS011;13816;53.628;9.950;2023-03-01T10:47:23;17.20;;;10.80;;
26040;SDS011;13816;53.628;9.950;2023-03-01T10:49:54;18.47;;;10.30;;
26040;SDS011;13816;53.628;9.950;2023-03-01T10:52:21;12.60;;;9.93;;
26040;SDS011;13816;53.628;9.950;2023-03-01T10:54:56;14.50;;;10.10;;
26040;SDS011;13816;53.628;9.950;2023-03-01T10:57:31;15.57;;;10.70;;
26040;SDS011;13816;53.628;9.950;2023-03-01T11:00:13;12.10;;;9.50;;
26040;SDS011;13816;53.628;9.950;2023-03-01T11:02:46;15.50;;;10.60;;
26040;SDS011;13816;53.628;9.950;2023-03-01T11:05:16;14.43;;;10.27;;
26040;SDS011;13816;53.628;9.950;2023-03-01T11:07:54;12.20;;;10.23;;
26040;SDS011;13816;53.628;9.950;2023-03-01T11:10:28;11.03;;;8.90;;
26040;SDS011;13816;53.628;9.950;2023-03-01T11:13:05;16.60;;;9.40;;
26040;SDS011;13816;53.628;9.950;2023-03-01T11:15:32;13.67;;;9.80;;
26040;SDS011;13816;53.628;9.950;2023-03-01T11:17:58;13.47;;;9.13;;
26040;SDS011;13816;53.628;9.950;2023-03-01T11:20:42;16.63;;;11.33;;
26040;SDS011;13816;53.628;9.950;2023-03-01T11:23:10;11.73;;;9.63;;
26040;SDS011;13816;53.628;9.950;2023-03-01T11:25:37;14.80;;;10.23;;
26040;SDS011;13816;53.628;9.950;2023-03-01T11:28:05;13.90;;;10.07;;
26040;SDS011;13816;53.628;9.950;2023-03-01T11:35:47;13.00;;;9.70;;
26040;SDS011;13816;53.628;9.950;2023-03-01T11:38:16;14.70;;;9.90;;
26040;SDS011;13816;53.628;9.950;2023-03-01T11:43:15;12.10;;;8.60;;
26040;SDS011;13816;53.628;9.950;2023-03-01T11:45:48;12.37;;;9.03;;
26040;SDS011;13816;53.628;9.950;2023-03-01T11:48:24;12.50;;;9.63;;
26040;SDS011;13816;53.628;9.950;2023-03-01T11:50:54;9.53;;;7.80;;
26040;SDS011;13816;53.628;9.950;2023-03-01T11:58:38;12.83;;;7.40;;
26040;SDS011;13816;53.628;9.950;2023-03-01T12:01:48;10.57;;;8.03;;
26040;SDS011;13816;53.628;9.950;2023-03-01T12:06:26;9.87;;;6.53;;
26040;SDS011;13816;53.628;9.950;2023-03-01T12:17:04;9.37;;;7.63;;
26040;SDS011;13816;53.628;9.950;2023-03-01T12:19:37;11.50;;;8.40;;
26040;SDS011;13816;53.628;9.950;2023-03-01T12:27:14;13.20;;;9.20;;
26040;SDS011;13816;53.628;9.950;2023-03-01T12:48:14;12.97;;;9.57;;
26040;SDS011;13816;53.628;9.950;2023-03-01T12:50:47;15.70;;;8.97;;
26040;SDS011;13816;53.628;9.950;2023-03-01T12:53:24;11.37;;;8.60;;
26040;SDS011;13816;53.628;9.950;2023-03-01T12:55:52;10.30;;;7.53;;
26040;SDS011;13816;53.628;9.950;2023-03-01T13:03:36;10.90;;;7.83;;
26040;SDS011;13816;53.628;9.950;2023-03-01T13:11:19;10.47;;;8.53;;
26040;SDS011;13816;53.628;9.950;2023-03-01T13:13:46;13.80;;;9.13;;
26040;SDS011;13816;53.628;9.950;2023-03-01T13:21:33;17.23;;;8.80;;
26040;SDS011;13816;53.628;9.950;2023-03-01T13:23:59;10.90;;;8.17;;
26040;SDS011;13816;53.628;9.950;2023-03-01T13:26:25;12.90;;;7.73;;
26040;SDS011;13816;53.628;9.950;2023-03-01T13:28:55;10.70;;;7.73;;
26040;SDS011;13816;53.628;9.950;2023-03-01T13:33:51;8.93;;;7.10;;
26040;SDS011;13816;53.628;9.950;2023-03-01T13:49:28;8.50;;;7.03;;
26040;SDS011;13816;53.628;9.950;2023-03-01T13:51:55;7.77;;;6.33;;
26040;SDS011;13816;53.628;9.950;2023-03-01T13:54:25;10.57;;;7.30;;
26040;SDS011;13816;53.628;9.950;2023-03-01T13:56:52;14.10;;;7.20;;
26040;SDS011;13816;53.628;9.950;2023-03-01T13:59:21;10.70;;;7.40;;
26040;SDS011;13816;53.628;9.950;2023-03-01T14:01:58;10.00;;;7.13;;
26040;SDS011;13816;53.628;9.950;2023-03-01T14:06:52;11.27;;;6.90;;
26040;SDS011;13816;53.628;9.950;2023-03-01T14:09:34;9.77;;;7.40;;
26040;SDS011;13816;53.628;9.950;2023-03-01T14:14:55;10.07;;;7.40;;
26040;SDS011;13816;53.628;9.950;2023-03-01T14:17:38;10.17;;;7.03;;
26040;SDS011;13816;53.628;9.950;2023-03-01T14:22:42;10.13;;;7.47;;
26040;SDS011;13816;53.628;9.950;2023-03-01T14:27:57;9.40;;;7.53;;
26040;SDS011;13816;53.628;9.950;2023-03-01T14:30:25;11.67;;;7.40;;
26040;SDS011;13816;53.628;9.950;2023-03-01T14:32:53;9.10;;;6.83;;
26040;SDS011;13816;53.628;9.950;2023-03-01T14:35:30;9.30;;;7.40;;
26040;SDS011;13816;53.628;9.950;2023-03-01T14:37:57;14.80;;;6.83;;
26040;SDS011;13816;53.628;9.950;2023-03-01T14:40:34;11.47;;;7.13;;
26040;SDS011;13816;53.628;9.950;2023-03-01T14:43:01;11.37;;;7.70;;
26040;SDS011;13816;53.628;9.950;2023-03-01T14:45:29;12.40;;;8.23;;
26040;SDS011;13816;53.628;9.950;2023-03-01T14:47:58;8.90;;;7.47;;
26040;SDS011;13816;53.628;9.950;2023-03-01T14:50:26;13.13;;;8.70;;
26040;SDS011;13816;53.628;9.950;2023-03-01T14:53:00;12.70;;;8.07;;
26040;SDS011;13816;53.628;9.950;2023-03-01T14:57:53;12.63;;;9.00;;
26040;SDS011;13816;53.628;9.950;2023-03-01T15:00:21;9.20;;;6.83;;
26040;SDS011;13816;53.628;9.950;2023-03-01T15:02:48;11.67;;;7.90;;
26040;SDS011;13816;53.628;9.950;2023-03-01T15:05:14;10.90;;;7.00;;
26040;SDS011;13816;53.628;9.950;2023-03-01T15:07:41;11.90;;;8.80;;
26040;SDS011;13816;53.628;9.950;2023-03-01T15:10:55;12.33;;;9.00;;
26040;SDS011;13816;53.628;9.950;2023-03-01T15:15:44;13.33;;;9.47;;
26040;SDS011;13816;53.628;9.950;2023-03-01T15:18:16;14.07;;;10.33;;
26040;SDS011;13816;53.628;9.950;2023-03-01T15:20:42;12.20;;;9.33;;
26040;SDS011;13816;53.628;9.950;2023-03-01T15:23:25;14.57;;;10.17;;
26040;SDS011;13816;53.628;9.950;2023-03-01T15:25:53;15.83;;;11.10;;
26040;SDS011;13816;53.628;9.950;2023-03-01T15:28:27;19.33;;;11.60;;
26040;SDS011;13816;53.628;9.950;2023-03-01T15:30:55;20.00;;;11.73;;
26040;SDS011;13816;53.628;9.950;2023-03-01T15:33:28;20.77;;;10.93;;
26040;SDS011;13816;53.628;9.950;2023-03-01T15:35:56;17.73;;;11.07;;
26040;SDS011;13816;53.628;9.950;2023-03-01T15:43:53;25.70;;;12.17;;
26040;SDS011;13816;53.628;9.950;2023-03-01T15:48:49;17.30;;;10.90;;
26040;SDS011;13816;53.628;9.950;2023-03-01T15:51:17;18.50;;;11.80;;
26040;SDS011;13816;53.628;9.950;2023-03-01T15:53:48;13.50;;;10.40;;
26040;SDS011;13816;53.628;9.950;2023-03-01T15:56:15;19.37;;;12.00;;
26040;SDS011;13816;53.628;9.950;2023-03-01T15:58:41;20.30;;;11.93;;
26040;SDS011;13816;53.628;9.950;2023-03-01T16:01:14;18.07;;;12.73;;
26040;SDS011;13816;53.628;9.950;2023-03-01T16:03:41;24.77;;;12.07;;
26040;SDS011;13816;53.628;9.950;2023-03-01T16:06:11;15.13;;;11.23;;
26040;SDS011;13816;53.628;9.950;2023-03-01T16:08:38;16.00;;;11.10;;
26040;SDS011;13816;53.628;9.950;2023-03-01T16:11:05;23.40;;;11.13;;
26040;SDS011;13816;53.628;9.950;2023-03-01T16:13:35;14.03;;;8.83;;
26040;SDS011;13816;53.628;9.950;2023-03-01T16:16:02;11.53;;;8.60;;
26040;SDS011;13816;53.628;9.950;2023-03-01T16:18:29;14.00;;;8.00;;
26040;SDS011;13816;53.628;9.950;2023-03-01T16:20:55;10.47;;;7.47;;
26040;SDS011;13816;53.628;9.950;2023-03-01T16:23:21;8.73;;;7.73;;
26040;SDS011;13816;53.628;9.950;2023-03-01T16:25:50;11.70;;;7.20;;
26040;SDS011;13816;53.628;9.950;2023-03-01T16:28:16;13.30;;;7.07;;
26040;SDS011;13816;53.628;9.950;2023-03-01T16:30:45;10.50;;;7.70;;
26040;SDS011;13816;53.628;9.950;2023-03-01T16:33:14;10.80;;;7.07;;
26040;SDS011;13816;53.628;9.950;2023-03-01T16:36:26;9.40;;;7.53;;
26040;SDS011;13816;53.628;9.950;2023-03-01T16:38:36;8.50;;;6.70;;
26040;SDS011;13816;53.628;9.950;2023-03-01T16:41:14;8.93;;;6.73;;
26040;SDS011;13816;53.628;9.950;2023-03-01T16:43:41;8.23;;;7.30;;
26040;SDS011;13816;53.628;9.950;2023-03-01T16:46:21;11.73;;;9.07;;
26040;SDS011;13816;53.628;9.950;2023-03-01T16:48:51;22.07;;;14.03;;